Amoret, Missouri
Current Conditions -  °F | °C
As of 10:53 AM on Wednesday 26 Nov 2014 (Local Time) from KOJC Reporting Station
Overcast Overcast  
Wind Chill: 34°   Ceiling: 3000
Heat Index: 42°   Visibility: 10mi
Dew Point: 31°   Wind: 16mph
Humidity: 65%   Direction: 320°NW
Pressure: 30"   Gusts: 28mph
Location:  38.26°N, 94.59°W
Report Text: KOJC 261653Z 32014G24KT 10SM OVC030 06/M01 A3000 RMK AO2 PK WND 31026/1634 SLP162 T00561006
Loading
Personal Weather Stations






























Interactive Weather Map New forecast layout! Learn more

10-Day Weather Forecast

Advertisements
Track Severe Weather on mobile